Tunbridge, Illinois
Current Conditions -  °F | °C
As of 9:15 PM on Monday 26 Jan 2015 (Local Time) from KAAA Reporting Station
Haze Haze  
Wind Chill: 32°   Ceiling: 2200
Heat Index: 32°   Visibility: 5mi
Dew Point: 31°   Wind: 0mph
Humidity: 94%   Direction: NA
Pressure: 29.91"   Gusts: NA
Location:  40.0933°N, 89.087°W
Report Text: KAAA 270315Z AUTO 00000KT 5SM BR OVC022 00/M01 A2991 RMK AO2 T00021006
Loading
Personal Weather Stations






























Interactive Weather Map New forecast layout! Learn more

10-Day Weather Forecast

Advertisements
Track Severe Weather on mobile